createdAt,value
2022-09-16T00:03:37.175Z,83.90
2022-09-16T00:13:39.735Z,88.60
2022-09-16T00:23:41.898Z,85.70
2022-09-16T00:33:43.738Z,89.00
2022-09-16T00:44:04.422Z,87.10
2022-09-16T00:54:10.575Z,82.90
2022-09-16T01:04:23.334Z,78.00
2022-09-16T01:14:46.795Z,78.70
2022-09-16T01:25:23.915Z,82.10
2022-09-16T01:35:37.699Z,76.30
2022-09-16T01:45:57.857Z,79.60
2022-09-16T01:56:25.998Z,80.80
2022-09-16T02:06:34.354Z,78.20
2022-09-16T02:16:51.036Z,76.40
2022-09-16T02:27:04.300Z,78.20
2022-09-16T02:37:22.256Z,78.30
2022-09-16T02:47:30.794Z,78.60
2022-09-16T02:57:32.696Z,72.30
2022-09-16T03:07:35.333Z,70.20
2022-09-16T03:18:04.836Z,64.10
2022-09-16T03:28:16.060Z,66.00
2022-09-16T03:38:22.436Z,73.50
2022-09-16T03:48:24.380Z,71.20
2022-09-16T03:58:26.393Z,65.80
2022-09-16T04:08:29.337Z,68.60
2022-09-16T04:18:33.253Z,75.70
2022-09-16T04:28:36.315Z,84.50
2022-09-16T04:38:39.516Z,84.10
2022-09-16T04:48:41.615Z,83.60
2022-09-16T04:58:43.917Z,82.90
2022-09-16T05:08:47.000Z,81.80
2022-09-16T05:18:51.297Z,84.60
2022-09-16T05:28:53.809Z,85.30
2022-09-16T07:12:14.152Z,63.50
2022-09-16T07:22:21.192Z,58.90
2022-09-16T07:32:23.667Z,57.20
2022-09-16T07:42:27.665Z,42.50
2022-09-16T07:52:33.411Z,43.60
2022-09-16T08:02:35.516Z,48.80
2022-09-16T08:12:37.862Z,48.50
2022-09-16T08:22:42.526Z,50.90
2022-09-16T08:32:44.766Z,47.80
2022-09-16T08:43:09.322Z,44.50
2022-09-16T08:53:26.689Z,32.60
2022-09-16T09:03:49.571Z,31.20
2022-09-16T09:14:26.326Z,31.40
2022-09-16T09:24:44.089Z,23.60
2022-09-16T09:35:01.003Z,24.50
2022-09-16T09:45:30.591Z,20.90
2022-09-16T09:55:39.731Z,24.50
2022-09-16T10:05:42.410Z,22.60
2022-09-16T10:15:45.147Z,23.40
2022-09-16T10:25:48.197Z,19.30
2022-09-16T10:36:13.550Z,15.20
2022-09-16T10:46:20.322Z,16.90
2022-09-16T10:56:27.085Z,16.50
2022-09-16T11:06:41.681Z,15.80
2022-09-16T11:17:06.273Z,17.60
2022-09-16T11:27:40.186Z,16.50
2022-09-16T11:37:56.006Z,17.80
2022-09-16T11:48:16.006Z,18.50
2022-09-16T11:58:55.283Z,18.00
2022-09-16T12:09:21.346Z,16.50
2022-09-16T12:19:32.720Z,12.90
2022-09-16T12:29:44.552Z,15.60
2022-09-16T12:39:47.284Z,14.10
2022-09-16T12:49:59.574Z,16.60
2022-09-16T13:00:28.120Z,12.70
2022-09-16T13:11:20.951Z,13.80
2022-09-16T13:21:15.863Z,13.30
2022-09-16T13:31:26.114Z,17.20
2022-09-16T13:41:49.822Z,19.40
2022-09-16T13:51:54.268Z,17.90
2022-09-16T14:02:24.687Z,19.10
2022-09-16T14:12:42.884Z,19.80
2022-09-16T14:22:49.349Z,25.00
2022-09-16T14:32:53.801Z,26.70
2022-09-16T14:43:10.668Z,21.90
2022-09-16T14:53:35.834Z,26.40
2022-09-16T15:03:56.433Z,26.00
2022-09-16T15:13:58.187Z,25.10
2022-09-16T15:24:04.025Z,30.80
2022-09-16T15:34:26.511Z,30.60
2022-09-16T15:44:39.586Z,33.70
2022-09-16T15:54:57.867Z,35.10
2022-09-16T16:05:10.127Z,37.30
2022-09-16T16:15:12.352Z,40.80
2022-09-16T16:25:15.767Z,40.40
2022-09-16T16:35:17.891Z,32.70
2022-09-16T16:45:20.401Z,33.80
2022-09-16T16:55:22.488Z,43.80
2022-09-16T17:05:24.468Z,48.90
2022-09-16T17:15:27.553Z,49.30
2022-09-16T17:25:29.938Z,52.60
2022-09-16T17:35:32.175Z,53.90
2022-09-16T17:45:36.209Z,55.20
2022-09-16T17:55:38.726Z,54.60
2022-09-16T18:05:41.825Z,52.70
2022-09-16T18:15:45.923Z,59.60
2022-09-16T18:25:48.770Z,59.80
2022-09-16T18:35:50.908Z,60.00
2022-09-16T18:45:56.576Z,66.20
2022-09-16T18:55:59.990Z,65.20
2022-09-16T19:06:03.185Z,67.70
2022-09-16T19:16:06.551Z,71.00
2022-09-16T19:26:09.145Z,62.50
2022-09-16T19:36:24.758Z,64.70
2022-09-16T19:46:28.567Z,69.60
2022-09-16T19:56:35.326Z,70.80
2022-09-16T20:06:42.164Z,70.40
2022-09-16T20:16:45.635Z,65.70
2022-09-16T20:26:49.356Z,67.20
2022-09-16T20:36:52.096Z,67.40
2022-09-16T20:46:54.536Z,69.00
2022-09-16T20:56:57.497Z,62.20
2022-09-16T21:07:00.276Z,64.20
2022-09-16T21:17:03.642Z,67.20
2022-09-16T21:27:05.500Z,67.40
2022-09-16T21:37:07.532Z,66.60
2022-09-16T21:47:13.593Z,66.30
2022-09-16T21:57:21.332Z,66.40
2022-09-16T22:07:23.554Z,60.20
2022-09-16T22:17:26.996Z,66.10
2022-09-16T22:27:33.354Z,66.20
2022-09-16T22:37:35.613Z,67.70
2022-09-16T22:47:37.573Z,66.90
2022-09-16T22:57:39.835Z,68.40
2022-09-16T23:07:41.752Z,64.10
2022-09-16T23:17:46.333Z,64.00
2022-09-16T23:27:48.335Z,66.70
2022-09-16T23:37:51.413Z,64.70
2022-09-16T23:47:53.355Z,67.70
2022-09-16T23:57:55.656Z,67.50
